sensor_id;sensor_type;location;lat;lon;timestamp;P1;durP1;ratioP1;P2;durP2;ratioP2
12601;SDS011;30282;16.436;99.370;2023-03-04T00:02:04;228.90;;;169.33;;
12601;SDS011;30282;16.436;99.370;2023-03-04T00:04:33;239.17;;;171.13;;
12601;SDS011;30282;16.436;99.370;2023-03-04T00:07:02;251.87;;;188.97;;
12601;SDS011;30282;16.436;99.370;2023-03-04T00:09:31;275.13;;;196.20;;
12601;SDS011;30282;16.436;99.370;2023-03-04T00:12:00;273.20;;;195.37;;
12601;SDS011;30282;16.436;99.370;2023-03-04T00:14:33;286.00;;;201.70;;
12601;SDS011;30282;16.436;99.370;2023-03-04T00:17:02;283.10;;;205.10;;
12601;SDS011;30282;16.436;99.370;2023-03-04T00:19:31;275.37;;;207.33;;
12601;SDS011;30282;16.436;99.370;2023-03-04T00:22:01;259.53;;;198.17;;
12601;SDS011;30282;16.436;99.370;2023-03-04T00:24:30;309.30;;;224.33;;
12601;SDS011;30282;16.436;99.370;2023-03-04T00:26:59;318.00;;;226.20;;
12601;SDS011;30282;16.436;99.370;2023-03-04T00:29:30;311.87;;;227.00;;
12601;SDS011;30282;16.436;99.370;2023-03-04T00:31:59;332.30;;;239.17;;
12601;SDS011;30282;16.436;99.370;2023-03-04T00:34:28;325.13;;;241.73;;
12601;SDS011;30282;16.436;99.370;2023-03-04T00:36:57;341.73;;;237.50;;
12601;SDS011;30282;16.436;99.370;2023-03-04T00:39:28;311.73;;;228.33;;
12601;SDS011;30282;16.436;99.370;2023-03-04T00:41:57;298.10;;;224.77;;
12601;SDS011;30282;16.436;99.370;2023-03-04T00:44:26;312.03;;;229.37;;
12601;SDS011;30282;16.436;99.370;2023-03-04T00:46:58;336.30;;;240.07;;
12601;SDS011;30282;16.436;99.370;2023-03-04T00:49:27;354.70;;;247.03;;
12601;SDS011;30282;16.436;99.370;2023-03-04T00:51:56;368.00;;;258.27;;
12601;SDS011;30282;16.436;99.370;2023-03-04T00:54:25;360.17;;;259.60;;
12601;SDS011;30282;16.436;99.370;2023-03-04T00:56:54;348.17;;;254.50;;
12601;SDS011;30282;16.436;99.370;2023-03-04T00:59:23;378.87;;;252.70;;
12601;SDS011;30282;16.436;99.370;2023-03-04T01:01:53;352.83;;;253.77;;
12601;SDS011;30282;16.436;99.370;2023-03-04T01:04:23;349.83;;;252.10;;
12601;SDS011;30282;16.436;99.370;2023-03-04T01:06:56;348.33;;;255.50;;
12601;SDS011;30282;16.436;99.370;2023-03-04T01:09:28;359.60;;;266.27;;
12601;SDS011;30282;16.436;99.370;2023-03-04T01:11:58;351.07;;;259.60;;
12601;SDS011;30282;16.436;99.370;2023-03-04T01:14:27;331.67;;;253.53;;
12601;SDS011;30282;16.436;99.370;2023-03-04T01:16:56;357.23;;;262.80;;
12601;SDS011;30282;16.436;99.370;2023-03-04T01:19:29;353.27;;;262.60;;
12601;SDS011;30282;16.436;99.370;2023-03-04T01:21:58;381.47;;;273.77;;
12601;SDS011;30282;16.436;99.370;2023-03-04T01:24:27;340.37;;;258.03;;
12601;SDS011;30282;16.436;99.370;2023-03-04T01:26:56;367.07;;;271.90;;
12601;SDS011;30282;16.436;99.370;2023-03-04T01:29:26;364.50;;;274.27;;
12601;SDS011;30282;16.436;99.370;2023-03-04T01:31:58;367.70;;;274.40;;
12601;SDS011;30282;16.436;99.370;2023-03-04T01:34:27;370.40;;;267.37;;
12601;SDS011;30282;16.436;99.370;2023-03-04T01:36:57;386.20;;;268.93;;
12601;SDS011;30282;16.436;99.370;2023-03-04T01:39:27;389.13;;;276.53;;
12601;SDS011;30282;16.436;99.370;2023-03-04T01:41:56;364.23;;;267.37;;
12601;SDS011;30282;16.436;99.370;2023-03-04T01:44:28;385.80;;;272.23;;
12601;SDS011;30282;16.436;99.370;2023-03-04T01:47:03;385.17;;;285.50;;
12601;SDS011;30282;16.436;99.370;2023-03-04T01:49:39;376.27;;;269.03;;
12601;SDS011;30282;16.436;99.370;2023-03-04T01:52:12;358.30;;;256.23;;
12601;SDS011;30282;16.436;99.370;2023-03-04T01:54:41;368.97;;;262.00;;
12601;SDS011;30282;16.436;99.370;2023-03-04T01:57:14;360.93;;;254.50;;
12601;SDS011;30282;16.436;99.370;2023-03-04T02:00:10;329.57;;;227.23;;
12601;SDS011;30282;16.436;99.370;2023-03-04T02:02:47;303.27;;;207.43;;
12601;SDS011;30282;16.436;99.370;2023-03-04T02:05:19;279.77;;;203.33;;
12601;SDS011;30282;16.436;99.370;2023-03-04T02:07:49;268.40;;;194.13;;
12601;SDS011;30282;16.436;99.370;2023-03-04T02:10:19;260.10;;;179.83;;
12601;SDS011;30282;16.436;99.370;2023-03-04T02:12:49;260.87;;;174.53;;
12601;SDS011;30282;16.436;99.370;2023-03-04T02:15:19;266.03;;;181.30;;
12601;SDS011;30282;16.436;99.370;2023-03-04T02:17:48;253.57;;;174.20;;
12601;SDS011;30282;16.436;99.370;2023-03-04T02:20:22;231.47;;;160.33;;
12601;SDS011;30282;16.436;99.370;2023-03-04T02:23:00;228.27;;;151.07;;
12601;SDS011;30282;16.436;99.370;2023-03-04T02:25:36;204.50;;;139.63;;
12601;SDS011;30282;16.436;99.370;2023-03-04T02:28:13;185.40;;;124.97;;
12601;SDS011;30282;16.436;99.370;2023-03-04T02:30:43;164.57;;;112.10;;
12601;SDS011;30282;16.436;99.370;2023-03-04T02:33:13;135.30;;;96.97;;
12601;SDS011;30282;16.436;99.370;2023-03-04T02:35:44;130.93;;;87.67;;
12601;SDS011;30282;16.436;99.370;2023-03-04T02:38:14;96.63;;;69.43;;
12601;SDS011;30282;16.436;99.370;2023-03-04T02:40:44;112.87;;;70.40;;
12601;SDS011;30282;16.436;99.370;2023-03-04T02:43:21;101.87;;;72.53;;
12601;SDS011;30282;16.436;99.370;2023-03-04T02:45:53;96.73;;;65.33;;
12601;SDS011;30282;16.436;99.370;2023-03-04T02:48:22;91.00;;;58.27;;
12601;SDS011;30282;16.436;99.370;2023-03-04T02:50:52;80.67;;;55.73;;
12601;SDS011;30282;16.436;99.370;2023-03-04T02:53:24;78.83;;;55.77;;
12601;SDS011;30282;16.436;99.370;2023-03-04T02:55:58;79.67;;;53.13;;
12601;SDS011;30282;16.436;99.370;2023-03-04T02:58:31;71.50;;;50.70;;
12601;SDS011;30282;16.436;99.370;2023-03-04T03:01:07;73.73;;;51.17;;
12601;SDS011;30282;16.436;99.370;2023-03-04T03:03:39;72.87;;;49.57;;
12601;SDS011;30282;16.436;99.370;2023-03-04T03:06:08;83.80;;;49.33;;
12601;SDS011;30282;16.436;99.370;2023-03-04T03:08:38;80.70;;;45.87;;
12601;SDS011;30282;16.436;99.370;2023-03-04T03:11:07;64.87;;;48.70;;
12601;SDS011;30282;16.436;99.370;2023-03-04T03:13:38;64.07;;;48.57;;
12601;SDS011;30282;16.436;99.370;2023-03-04T03:16:07;68.80;;;48.60;;
12601;SDS011;30282;16.436;99.370;2023-03-04T03:18:36;72.10;;;49.07;;
12601;SDS011;30282;16.436;99.370;2023-03-04T03:21:06;74.60;;;48.83;;
12601;SDS011;30282;16.436;99.370;2023-03-04T03:23:35;72.57;;;48.60;;
12601;SDS011;30282;16.436;99.370;2023-03-04T03:26:04;80.17;;;49.30;;
12601;SDS011;30282;16.436;99.370;2023-03-04T03:28:34;74.40;;;49.17;;
12601;SDS011;30282;16.436;99.370;2023-03-04T03:31:05;70.50;;;51.07;;
12601;SDS011;30282;16.436;99.370;2023-03-04T03:33:34;76.07;;;48.93;;
12601;SDS011;30282;16.436;99.370;2023-03-04T03:36:04;82.90;;;50.43;;
12601;SDS011;30282;16.436;99.370;2023-03-04T03:38:33;76.53;;;48.57;;
12601;SDS011;30282;16.436;99.370;2023-03-04T03:41:03;64.37;;;45.80;;
12601;SDS011;30282;16.436;99.370;2023-03-04T03:43:35;79.80;;;50.67;;
12601;SDS011;30282;16.436;99.370;2023-03-04T03:46:06;71.23;;;49.77;;
12601;SDS011;30282;16.436;99.370;2023-03-04T03:48:35;68.70;;;47.80;;
12601;SDS011;30282;16.436;99.370;2023-03-04T03:51:07;75.33;;;48.17;;
12601;SDS011;30282;16.436;99.370;2023-03-04T03:53:46;65.77;;;46.87;;
12601;SDS011;30282;16.436;99.370;2023-03-04T03:56:15;78.43;;;49.67;;
12601;SDS011;30282;16.436;99.370;2023-03-04T03:58:52;74.40;;;46.70;;
12601;SDS011;30282;16.436;99.370;2023-03-04T04:01:26;65.20;;;47.50;;
12601;SDS011;30282;16.436;99.370;2023-03-04T04:03:55;64.53;;;48.40;;
12601;SDS011;30282;16.436;99.370;2023-03-04T04:06:24;79.50;;;48.40;;
12601;SDS011;30282;16.436;99.370;2023-03-04T04:09:00;65.20;;;47.97;;
12601;SDS011;30282;16.436;99.370;2023-03-04T04:11:31;72.43;;;47.73;;
12601;SDS011;30282;16.436;99.370;2023-03-04T04:14:01;76.10;;;49.43;;
12601;SDS011;30282;16.436;99.370;2023-03-04T04:16:32;72.60;;;48.97;;
12601;SDS011;30282;16.436;99.370;2023-03-04T04:19:01;67.17;;;47.93;;
12601;SDS011;30282;16.436;99.370;2023-03-04T04:21:30;79.80;;;50.80;;
12601;SDS011;30282;16.436;99.370;2023-03-04T04:23:59;72.43;;;50.90;;
12601;SDS011;30282;16.436;99.370;2023-03-04T04:26:28;68.57;;;49.80;;
12601;SDS011;30282;16.436;99.370;2023-03-04T04:28:58;67.43;;;48.27;;
12601;SDS011;30282;16.436;99.370;2023-03-04T04:31:27;68.83;;;47.50;;
12601;SDS011;30282;16.436;99.370;2023-03-04T04:33:59;66.93;;;48.60;;
12601;SDS011;30282;16.436;99.370;2023-03-04T04:36:34;65.70;;;45.57;;
12601;SDS011;30282;16.436;99.370;2023-03-04T04:39:04;72.43;;;47.13;;
12601;SDS011;30282;16.436;99.370;2023-03-04T04:41:35;65.90;;;47.70;;
12601;SDS011;30282;16.436;99.370;2023-03-04T04:44:05;63.93;;;46.07;;
12601;SDS011;30282;16.436;99.370;2023-03-04T04:46:35;71.70;;;47.07;;
12601;SDS011;30282;16.436;99.370;2023-03-04T04:49:06;72.83;;;47.40;;
12601;SDS011;30282;16.436;99.370;2023-03-04T04:51:36;58.77;;;44.97;;
12601;SDS011;30282;16.436;99.370;2023-03-04T04:54:05;68.60;;;47.80;;
12601;SDS011;30282;16.436;99.370;2023-03-04T04:56:35;56.63;;;45.93;;
12601;SDS011;30282;16.436;99.370;2023-03-04T04:59:05;67.73;;;48.27;;
12601;SDS011;30282;16.436;99.370;2023-03-04T05:01:35;65.00;;;49.00;;
12601;SDS011;30282;16.436;99.370;2023-03-04T05:04:06;68.10;;;45.10;;
12601;SDS011;30282;16.436;99.370;2023-03-04T05:06:35;78.50;;;46.30;;
12601;SDS011;30282;16.436;99.370;2023-03-04T05:09:05;71.17;;;46.23;;
12601;SDS011;30282;16.436;99.370;2023-03-04T05:11:34;126.37;;;47.73;;
12601;SDS011;30282;16.436;99.370;2023-03-04T05:14:03;67.13;;;44.93;;
12601;SDS011;30282;16.436;99.370;2023-03-04T05:16:32;54.30;;;42.03;;
12601;SDS011;30282;16.436;99.370;2023-03-04T05:19:02;67.73;;;43.30;;
12601;SDS011;30282;16.436;99.370;2023-03-04T05:21:33;75.07;;;44.37;;
12601;SDS011;30282;16.436;99.370;2023-03-04T05:24:05;67.90;;;46.67;;
12601;SDS011;30282;16.436;99.370;2023-03-04T05:26:34;54.97;;;42.67;;
12601;SDS011;30282;16.436;99.370;2023-03-04T05:29:04;57.80;;;41.40;;
12601;SDS011;30282;16.436;99.370;2023-03-04T05:31:33;63.53;;;45.30;;
12601;SDS011;30282;16.436;99.370;2023-03-04T05:34:02;56.17;;;41.13;;
12601;SDS011;30282;16.436;99.370;2023-03-04T05:36:33;54.30;;;42.13;;
12601;SDS011;30282;16.436;99.370;2023-03-04T05:39:03;58.53;;;41.97;;
12601;SDS011;30282;16.436;99.370;2023-03-04T05:41:32;60.83;;;43.53;;
12601;SDS011;30282;16.436;99.370;2023-03-04T05:44:08;54.73;;;42.17;;
12601;SDS011;30282;16.436;99.370;2023-03-04T05:46:37;61.20;;;42.23;;
12601;SDS011;30282;16.436;99.370;2023-03-04T05:49:07;65.50;;;44.33;;
12601;SDS011;30282;16.436;99.370;2023-03-04T05:51:40;57.43;;;42.20;;
12601;SDS011;30282;16.436;99.370;2023-03-04T05:54:09;61.17;;;44.00;;
12601;SDS011;30282;16.436;99.370;2023-03-04T05:56:39;61.67;;;43.57;;
12601;SDS011;30282;16.436;99.370;2023-03-04T05:59:08;57.53;;;42.80;;
12601;SDS011;30282;16.436;99.370;2023-03-04T06:01:38;61.37;;;43.80;;
12601;SDS011;30282;16.436;99.370;2023-03-04T06:04:07;62.27;;;44.70;;
12601;SDS011;30282;16.436;99.370;2023-03-04T06:06:36;69.47;;;41.00;;
12601;SDS011;30282;16.436;99.370;2023-03-04T06:09:07;61.93;;;42.10;;
12601;SDS011;30282;16.436;99.370;2023-03-04T06:24:23;53.87;;;42.57;;
12601;SDS011;30282;16.436;99.370;2023-03-04T06:26:53;60.20;;;40.70;;
12601;SDS011;30282;16.436;99.370;2023-03-04T06:29:22;52.53;;;42.00;;
12601;SDS011;30282;16.436;99.370;2023-03-04T06:31:51;54.03;;;40.83;;
12601;SDS011;30282;16.436;99.370;2023-03-04T06:34:20;53.73;;;41.37;;
12601;SDS011;30282;16.436;99.370;2023-03-04T06:36:49;59.23;;;43.53;;
12601;SDS011;30282;16.436;99.370;2023-03-04T06:39:18;60.90;;;41.53;;
12601;SDS011;30282;16.436;99.370;2023-03-04T06:41:54;62.27;;;39.40;;
12601;SDS011;30282;16.436;99.370;2023-03-04T06:44:23;57.33;;;41.73;;
12601;SDS011;30282;16.436;99.370;2023-03-04T06:47:00;63.30;;;41.27;;
12601;SDS011;30282;16.436;99.370;2023-03-04T06:49:32;57.30;;;40.03;;
12601;SDS011;30282;16.436;99.370;2023-03-04T06:52:01;59.33;;;42.13;;
12601;SDS011;30282;16.436;99.370;2023-03-04T06:54:32;52.50;;;41.07;;
12601;SDS011;30282;16.436;99.370;2023-03-04T06:57:01;51.07;;;40.30;;
12601;SDS011;30282;16.436;99.370;2023-03-04T06:59:32;66.07;;;40.50;;
12601;SDS011;30282;16.436;99.370;2023-03-04T07:02:03;54.67;;;40.47;;
12601;SDS011;30282;16.436;99.370;2023-03-04T07:04:46;50.77;;;39.83;;
12601;SDS011;30282;16.436;99.370;2023-03-04T07:07:17;61.10;;;39.70;;
12601;SDS011;30282;16.436;99.370;2023-03-04T07:09:48;56.37;;;41.10;;
12601;SDS011;30282;16.436;99.370;2023-03-04T07:12:17;50.93;;;39.90;;
12601;SDS011;30282;16.436;99.370;2023-03-04T07:14:49;53.53;;;38.67;;
12601;SDS011;30282;16.436;99.370;2023-03-04T07:17:20;50.00;;;39.60;;
12601;SDS011;30282;16.436;99.370;2023-03-04T07:19:49;54.43;;;40.10;;
12601;SDS011;30282;16.436;99.370;2023-03-04T07:22:18;46.67;;;38.40;;
12601;SDS011;30282;16.436;99.370;2023-03-04T07:24:49;54.53;;;39.57;;
12601;SDS011;30282;16.436;99.370;2023-03-04T07:27:18;47.77;;;38.53;;
12601;SDS011;30282;16.436;99.370;2023-03-04T07:29:46;46.10;;;36.03;;
12601;SDS011;30282;16.436;99.370;2023-03-04T07:32:15;52.80;;;37.10;;
12601;SDS011;30282;16.436;99.370;2023-03-04T07:34:44;57.57;;;38.67;;
12601;SDS011;30282;16.436;99.370;2023-03-04T07:37:13;58.80;;;39.53;;
12601;SDS011;30282;16.436;99.370;2023-03-04T07:39:42;52.67;;;38.90;;
12601;SDS011;30282;16.436;99.370;2023-03-04T07:42:12;54.27;;;39.17;;
12601;SDS011;30282;16.436;99.370;2023-03-04T07:44:41;49.43;;;38.77;;
12601;SDS011;30282;16.436;99.370;2023-03-04T07:47:10;52.40;;;38.87;;
12601;SDS011;30282;16.436;99.370;2023-03-04T07:49:39;46.00;;;37.40;;
12601;SDS011;30282;16.436;99.370;2023-03-04T07:52:08;51.40;;;38.03;;
12601;SDS011;30282;16.436;99.370;2023-03-04T07:54:38;59.83;;;38.90;;
12601;SDS011;30282;16.436;99.370;2023-03-04T07:57:07;51.43;;;36.97;;
12601;SDS011;30282;16.436;99.370;2023-03-04T07:59:38;49.43;;;37.50;;
12601;SDS011;30282;16.436;99.370;2023-03-04T08:02:08;50.33;;;38.30;;
12601;SDS011;30282;16.436;99.370;2023-03-04T08:04:40;53.73;;;39.40;;
12601;SDS011;30282;16.436;99.370;2023-03-04T08:07:09;51.97;;;38.50;;
12601;SDS011;30282;16.436;99.370;2023-03-04T08:09:38;51.90;;;38.17;;
12601;SDS011;30282;16.436;99.370;2023-03-04T08:12:06;47.43;;;36.57;;
12601;SDS011;30282;16.436;99.370;2023-03-04T08:14:35;52.93;;;39.90;;
12601;SDS011;30282;16.436;99.370;2023-03-04T08:17:06;47.77;;;36.67;;
12601;SDS011;30282;16.436;99.370;2023-03-04T08:19:35;46.03;;;37.47;;
12601;SDS011;30282;16.436;99.370;2023-03-04T08:22:04;51.93;;;39.03;;
12601;SDS011;30282;16.436;99.370;2023-03-04T08:24:34;52.87;;;39.77;;
12601;SDS011;30282;16.436;99.370;2023-03-04T08:27:04;49.77;;;39.10;;
12601;SDS011;30282;16.436;99.370;2023-03-04T08:29:33;59.57;;;40.53;;
12601;SDS011;30282;16.436;99.370;2023-03-04T08:32:04;54.73;;;38.80;;
12601;SDS011;30282;16.436;99.370;2023-03-04T08:34:33;51.70;;;37.97;;
12601;SDS011;30282;16.436;99.370;2023-03-04T08:37:04;47.27;;;37.27;;
12601;SDS011;30282;16.436;99.370;2023-03-04T08:39:36;49.20;;;37.80;;
12601;SDS011;30282;16.436;99.370;2023-03-04T08:42:05;53.57;;;37.13;;
12601;SDS011;30282;16.436;99.370;2023-03-04T08:44:34;50.07;;;36.27;;
12601;SDS011;30282;16.436;99.370;2023-03-04T08:47:04;54.67;;;38.10;;
12601;SDS011;30282;16.436;99.370;2023-03-04T08:49:35;50.73;;;38.53;;
12601;SDS011;30282;16.436;99.370;2023-03-04T08:52:04;55.33;;;39.30;;
12601;SDS011;30282;16.436;99.370;2023-03-04T08:54:33;53.53;;;38.23;;
12601;SDS011;30282;16.436;99.370;2023-03-04T08:57:05;52.23;;;39.60;;
12601;SDS011;30282;16.436;99.370;2023-03-04T08:59:37;52.90;;;38.83;;
12601;SDS011;30282;16.436;99.370;2023-03-04T09:02:08;51.53;;;38.23;;
12601;SDS011;30282;16.436;99.370;2023-03-04T09:04:37;60.80;;;40.03;;
12601;SDS011;30282;16.436;99.370;2023-03-04T09:07:06;48.20;;;37.23;;
12601;SDS011;30282;16.436;99.370;2023-03-04T09:09:38;52.50;;;38.27;;
12601;SDS011;30282;16.436;99.370;2023-03-04T09:12:07;55.43;;;37.23;;
12601;SDS011;30282;16.436;99.370;2023-03-04T09:14:39;51.60;;;39.50;;
12601;SDS011;30282;16.436;99.370;2023-03-04T09:17:09;56.90;;;39.80;;
12601;SDS011;30282;16.436;99.370;2023-03-04T09:19:41;61.23;;;39.40;;
12601;SDS011;30282;16.436;99.370;2023-03-04T09:22:13;54.50;;;40.77;;
12601;SDS011;30282;16.436;99.370;2023-03-04T09:24:44;57.70;;;43.60;;
12601;SDS011;30282;16.436;99.370;2023-03-04T09:27:13;56.00;;;43.30;;
12601;SDS011;30282;16.436;99.370;2023-03-04T09:29:44;61.13;;;43.20;;
12601;SDS011;30282;16.436;99.370;2023-03-04T09:32:15;61.77;;;42.83;;
12601;SDS011;30282;16.436;99.370;2023-03-04T09:34:44;60.97;;;45.20;;
12601;SDS011;30282;16.436;99.370;2023-03-04T09:37:13;67.07;;;43.33;;
12601;SDS011;30282;16.436;99.370;2023-03-04T09:39:42;57.93;;;43.70;;
12601;SDS011;30282;16.436;99.370;2023-03-04T09:42:12;64.17;;;43.40;;
12601;SDS011;30282;16.436;99.370;2023-03-04T09:44:50;60.23;;;44.70;;
12601;SDS011;30282;16.436;99.370;2023-03-04T09:47:23;62.67;;;42.60;;
12601;SDS011;30282;16.436;99.370;2023-03-04T09:49:56;61.40;;;43.67;;
12601;SDS011;30282;16.436;99.370;2023-03-04T09:52:34;64.00;;;43.30;;
12601;SDS011;30282;16.436;99.370;2023-03-04T09:55:15;60.80;;;42.43;;
12601;SDS011;30282;16.436;99.370;2023-03-04T09:57:50;72.60;;;48.17;;
12601;SDS011;30282;16.436;99.370;2023-03-04T10:00:25;74.20;;;52.50;;
12601;SDS011;30282;16.436;99.370;2023-03-04T10:03:05;65.50;;;45.77;;
12601;SDS011;30282;16.436;99.370;2023-03-04T10:05:42;63.13;;;43.70;;
12601;SDS011;30282;16.436;99.370;2023-03-04T10:08:20;74.30;;;41.83;;
12601;SDS011;30282;16.436;99.370;2023-03-04T10:11:06;78.50;;;52.67;;
12601;SDS011;30282;16.436;99.370;2023-03-04T10:13:43;84.00;;;58.10;;
12601;SDS011;30282;16.436;99.370;2023-03-04T10:16:23;107.87;;;81.90;;
12601;SDS011;30282;16.436;99.370;2023-03-04T10:19:00;71.70;;;45.90;;
12601;SDS011;30282;16.436;99.370;2023-03-04T10:21:41;81.97;;;54.33;;
12601;SDS011;30282;16.436;99.370;2023-03-04T10:24:12;74.37;;;48.87;;
12601;SDS011;30282;16.436;99.370;2023-03-04T10:26:43;80.77;;;63.97;;
12601;SDS011;30282;16.436;99.370;2023-03-04T10:29:13;121.10;;;87.43;;
12601;SDS011;30282;16.436;99.370;2023-03-04T10:31:44;117.60;;;81.30;;
12601;SDS011;30282;16.436;99.370;2023-03-04T10:34:16;80.63;;;52.67;;
12601;SDS011;30282;16.436;99.370;2023-03-04T10:36:48;76.50;;;50.43;;
12601;SDS011;30282;16.436;99.370;2023-03-04T10:39:23;103.37;;;63.20;;
12601;SDS011;30282;16.436;99.370;2023-03-04T10:41:55;92.13;;;55.73;;
12601;SDS011;30282;16.436;99.370;2023-03-04T10:44:27;93.57;;;70.87;;
12601;SDS011;30282;16.436;99.370;2023-03-04T10:46:56;122.80;;;93.63;;
12601;SDS011;30282;16.436;99.370;2023-03-04T10:49:27;186.40;;;139.37;;
12601;SDS011;30282;16.436;99.370;2023-03-04T10:52:00;227.93;;;170.80;;
12601;SDS011;30282;16.436;99.370;2023-03-04T10:54:31;200.27;;;149.80;;
12601;SDS011;30282;16.436;99.370;2023-03-04T10:57:04;204.80;;;141.67;;
12601;SDS011;30282;16.436;99.370;2023-03-04T10:59:46;136.90;;;95.43;;
12601;SDS011;30282;16.436;99.370;2023-03-04T11:02:22;137.50;;;92.70;;
12601;SDS011;30282;16.436;99.370;2023-03-04T11:04:55;223.53;;;157.53;;
12601;SDS011;30282;16.436;99.370;2023-03-04T11:07:34;182.17;;;136.20;;
12601;SDS011;30282;16.436;99.370;2023-03-04T11:10:08;161.30;;;109.43;;
12601;SDS011;30282;16.436;99.370;2023-03-04T11:12:38;157.87;;;117.60;;
12601;SDS011;30282;16.436;99.370;2023-03-04T11:15:15;256.77;;;163.50;;
12601;SDS011;30282;16.436;99.370;2023-03-04T11:17:50;187.80;;;129.77;;
12601;SDS011;30282;16.436;99.370;2023-03-04T11:20:27;205.63;;;146.47;;
12601;SDS011;30282;16.436;99.370;2023-03-04T11:23:00;159.80;;;116.97;;
12601;SDS011;30282;16.436;99.370;2023-03-04T11:25:32;164.47;;;119.17;;
12601;SDS011;30282;16.436;99.370;2023-03-04T11:28:02;150.20;;;104.10;;
12601;SDS011;30282;16.436;99.370;2023-03-04T11:30:41;141.60;;;104.77;;
12601;SDS011;30282;16.436;99.370;2023-03-04T11:33:18;151.07;;;104.17;;
12601;SDS011;30282;16.436;99.370;2023-03-04T11:36:02;132.20;;;92.77;;
12601;SDS011;30282;16.436;99.370;2023-03-04T11:38:41;131.67;;;89.70;;
12601;SDS011;30282;16.436;99.370;2023-03-04T11:41:15;123.40;;;90.27;;
12601;SDS011;30282;16.436;99.370;2023-03-04T11:43:47;149.50;;;89.60;;
12601;SDS011;30282;16.436;99.370;2023-03-04T11:49:34;144.63;;;94.57;;
12601;SDS011;30282;16.436;99.370;2023-03-04T11:52:26;150.63;;;98.07;;
12601;SDS011;30282;16.436;99.370;2023-03-04T11:55:27;134.10;;;89.97;;
12601;SDS011;30282;16.436;99.370;2023-03-04T11:58:06;102.00;;;73.83;;
12601;SDS011;30282;16.436;99.370;2023-03-04T12:01:00;125.50;;;73.17;;
12601;SDS011;30282;16.436;99.370;2023-03-04T12:03:52;123.93;;;78.10;;
12601;SDS011;30282;16.436;99.370;2023-03-04T12:06:45;119.00;;;70.20;;
12601;SDS011;30282;16.436;99.370;2023-03-04T12:09:40;108.13;;;67.00;;
12601;SDS011;30282;16.436;99.370;2023-03-04T12:12:20;98.90;;;67.20;;
12601;SDS011;30282;16.436;99.370;2023-03-04T12:15:07;103.63;;;68.03;;
12601;SDS011;30282;16.436;99.370;2023-03-04T12:17:49;111.53;;;67.33;;
12601;SDS011;30282;16.436;99.370;2023-03-04T12:20:40;89.30;;;59.43;;
12601;SDS011;30282;16.436;99.370;2023-03-04T12:23:21;86.10;;;54.93;;
12601;SDS011;30282;16.436;99.370;2023-03-04T12:26:12;84.73;;;54.83;;
12601;SDS011;30282;16.436;99.370;2023-03-04T12:28:53;85.73;;;56.13;;
12601;SDS011;30282;16.436;99.370;2023-03-04T12:31:32;91.60;;;54.57;;
12601;SDS011;30282;16.436;99.370;2023-03-04T12:34:23;83.43;;;55.47;;
12601;SDS011;30282;16.436;99.370;2023-03-04T12:40:30;79.83;;;55.40;;
12601;SDS011;30282;16.436;99.370;2023-03-04T12:43:18;80.63;;;53.90;;
12601;SDS011;30282;16.436;99.370;2023-03-04T12:46:20;88.00;;;55.57;;
12601;SDS011;30282;16.436;99.370;2023-03-04T12:49:11;101.67;;;60.40;;
12601;SDS011;30282;16.436;99.370;2023-03-04T12:51:53;99.30;;;63.07;;
12601;SDS011;30282;16.436;99.370;2023-03-04T12:54:30;91.90;;;61.63;;
12601;SDS011;30282;16.436;99.370;2023-03-04T12:57:06;102.43;;;66.50;;
12601;SDS011;30282;16.436;99.370;2023-03-04T12:59:42;101.20;;;64.80;;
12601;SDS011;30282;16.436;99.370;2023-03-04T13:05:18;114.23;;;68.37;;
12601;SDS011;30282;16.436;99.370;2023-03-04T13:08:01;93.80;;;69.43;;
12601;SDS011;30282;16.436;99.370;2023-03-04T13:10:36;105.83;;;66.17;;
12601;SDS011;30282;16.436;99.370;2023-03-04T13:13:15;89.60;;;67.33;;
12601;SDS011;30282;16.436;99.370;2023-03-04T13:16:05;113.67;;;65.97;;
12601;SDS011;30282;16.436;99.370;2023-03-04T13:18:54;95.60;;;64.67;;
12601;SDS011;30282;16.436;99.370;2023-03-04T13:21:23;93.50;;;63.40;;
12601;SDS011;30282;16.436;99.370;2023-03-04T13:23:54;112.50;;;63.63;;
12601;SDS011;30282;16.436;99.370;2023-03-04T13:26:26;100.40;;;62.63;;
12601;SDS011;30282;16.436;99.370;2023-03-04T13:29:29;107.37;;;60.03;;
12601;SDS011;30282;16.436;99.370;2023-03-04T13:32:03;90.17;;;62.90;;
12601;SDS011;30282;16.436;99.370;2023-03-04T13:34:43;106.33;;;65.07;;
12601;SDS011;30282;16.436;99.370;2023-03-04T13:37:28;101.87;;;65.77;;
12601;SDS011;30282;16.436;99.370;2023-03-04T13:43:25;106.93;;;68.70;;
12601;SDS011;30282;16.436;99.370;2023-03-04T13:45:55;115.23;;;69.20;;
12601;SDS011;30282;16.436;99.370;2023-03-04T13:48:30;94.13;;;66.60;;
12601;SDS011;30282;16.436;99.370;2023-03-04T13:51:03;148.87;;;68.53;;
12601;SDS011;30282;16.436;99.370;2023-03-04T13:53:42;128.40;;;71.63;;
12601;SDS011;30282;16.436;99.370;2023-03-04T13:56:21;107.37;;;73.20;;
12601;SDS011;30282;16.436;99.370;2023-03-04T13:59:00;119.20;;;70.77;;
12601;SDS011;30282;16.436;99.370;2023-03-04T14:04:54;100.20;;;69.10;;
12601;SDS011;30282;16.436;99.370;2023-03-04T14:07:25;108.33;;;70.93;;
12601;SDS011;30282;16.436;99.370;2023-03-04T14:09:56;104.30;;;69.47;;
12601;SDS011;30282;16.436;99.370;2023-03-04T14:12:27;123.57;;;71.77;;
12601;SDS011;30282;16.436;99.370;2023-03-04T14:14:58;113.40;;;74.97;;
12601;SDS011;30282;16.436;99.370;2023-03-04T14:17:31;104.57;;;69.60;;
12601;SDS011;30282;16.436;99.370;2023-03-04T14:20:04;112.47;;;73.50;;
12601;SDS011;30282;16.436;99.370;2023-03-04T14:22:53;113.07;;;72.80;;
12601;SDS011;30282;16.436;99.370;2023-03-04T14:25:23;117.23;;;72.37;;
12601;SDS011;30282;16.436;99.370;2023-03-04T14:28:01;114.17;;;73.23;;
12601;SDS011;30282;16.436;99.370;2023-03-04T14:30:31;101.93;;;70.93;;
12601;SDS011;30282;16.436;99.370;2023-03-04T14:33:01;106.17;;;71.97;;
12601;SDS011;30282;16.436;99.370;2023-03-04T14:35:35;116.50;;;73.00;;
12601;SDS011;30282;16.436;99.370;2023-03-04T14:38:04;113.53;;;70.67;;
12601;SDS011;30282;16.436;99.370;2023-03-04T14:40:43;109.30;;;73.33;;
12601;SDS011;30282;16.436;99.370;2023-03-04T14:43:14;98.57;;;70.37;;
12601;SDS011;30282;16.436;99.370;2023-03-04T14:45:48;111.23;;;69.07;;
12601;SDS011;30282;16.436;99.370;2023-03-04T14:48:19;100.63;;;69.70;;
12601;SDS011;30282;16.436;99.370;2023-03-04T14:50:53;96.67;;;69.80;;
12601;SDS011;30282;16.436;99.370;2023-03-04T14:53:24;105.23;;;73.07;;
12601;SDS011;30282;16.436;99.370;2023-03-04T14:55:54;111.20;;;78.10;;
12601;SDS011;30282;16.436;99.370;2023-03-04T14:58:27;109.43;;;73.63;;
12601;SDS011;30282;16.436;99.370;2023-03-04T15:01:12;114.53;;;76.63;;
12601;SDS011;30282;16.436;99.370;2023-03-04T15:03:42;117.50;;;75.80;;